createdAt,value
2017-01-18T00:00:02.929Z,0
2017-01-18T00:00:43.421Z,0
2017-01-18T00:01:23.927Z,0
2017-01-18T00:02:04.430Z,0
2017-01-18T00:02:44.928Z,0
2017-01-18T00:03:25.398Z,0
2017-01-18T00:04:05.892Z,0
2017-01-18T00:04:46.383Z,0
2017-01-18T00:05:26.881Z,0
2017-01-18T00:06:07.357Z,0
2017-01-18T00:06:47.862Z,0
2017-01-18T00:07:28.348Z,0
2017-01-18T00:08:08.831Z,0
2017-01-18T00:08:49.315Z,0
2017-01-18T00:09:29.825Z,0
2017-01-18T00:10:10.313Z,0
2017-01-18T00:10:50.822Z,0
2017-01-18T00:11:31.318Z,0
2017-01-18T00:12:11.826Z,0
2017-01-18T00:12:52.306Z,0
2017-01-18T00:13:32.798Z,0
2017-01-18T00:14:13.308Z,0
2017-01-18T00:14:53.793Z,0
2017-01-18T00:15:34.280Z,0
2017-01-18T00:16:14.788Z,0
2017-01-18T00:16:55.270Z,0
2017-01-18T00:17:35.758Z,0
2017-01-18T00:18:16.264Z,0
2017-01-18T00:18:56.752Z,0
2017-01-18T00:19:37.233Z,0
2017-01-18T00:20:17.716Z,0
2017-01-18T00:20:58.213Z,0
2017-01-18T00:21:38.706Z,0
2017-01-18T00:22:19.196Z,0
2017-01-18T00:22:59.710Z,0
2017-01-18T00:23:40.192Z,0
2017-01-18T00:24:20.682Z,0
2017-01-18T00:25:01.187Z,0
2017-01-18T00:25:41.672Z,0
2017-01-18T00:26:22.159Z,0
2017-01-18T00:27:02.655Z,0
2017-01-18T00:27:43.148Z,0
2017-01-18T00:28:23.642Z,0
2017-01-18T00:29:04.163Z,0
2017-01-18T00:29:44.641Z,0
2017-01-18T00:30:25.131Z,0
2017-01-18T00:31:05.648Z,0
2017-01-18T00:31:46.142Z,0
2017-01-18T00:32:26.642Z,0
2017-01-18T00:33:07.141Z,0
2017-01-18T00:33:47.612Z,0
2017-01-18T00:34:28.111Z,0
2017-01-18T00:35:08.600Z,0
2017-01-18T00:35:49.096Z,0
2017-01-18T00:36:29.591Z,0
2017-01-18T00:37:10.078Z,0
2017-01-18T00:37:50.633Z,0
2017-01-18T00:38:31.120Z,0
2017-01-18T00:39:11.605Z,0
2017-01-18T00:39:52.091Z,0
2017-01-18T00:40:32.601Z,0
2017-01-18T00:41:13.088Z,0
2017-01-18T00:41:53.583Z,0
2017-01-18T00:42:34.078Z,0
2017-01-18T00:43:14.583Z,0
2017-01-18T00:43:55.065Z,0
2017-01-18T00:44:35.550Z,0
2017-01-18T00:45:16.050Z,0
2017-01-18T00:45:56.548Z,0
2017-01-18T00:46:37.033Z,0
2017-01-18T00:47:17.519Z,0
2017-01-18T00:47:58.005Z,0
2017-01-18T00:48:38.487Z,0
2017-01-18T00:49:18.979Z,0
2017-01-18T00:49:59.459Z,0
2017-01-18T00:50:39.965Z,0
2017-01-18T00:51:20.452Z,0
2017-01-18T00:52:00.942Z,0
2017-01-18T00:52:41.442Z,0
2017-01-18T00:53:21.938Z,0
2017-01-18T00:54:02.443Z,0
2017-01-18T00:54:42.929Z,0
2017-01-18T00:55:23.424Z,0
2017-01-18T00:56:03.926Z,0
2017-01-18T00:56:44.411Z,0
2017-01-18T00:57:24.899Z,0
2017-01-18T00:58:05.379Z,0
2017-01-18T00:58:45.871Z,0
2017-01-18T00:59:26.367Z,0
2017-01-18T01:00:06.857Z,0
2017-01-18T01:00:47.340Z,0
2017-01-18T01:01:27.835Z,0
2017-01-18T01:02:08.335Z,0
2017-01-18T01:02:48.823Z,0
2017-01-18T01:03:29.327Z,0
2017-01-18T01:04:09.821Z,0
2017-01-18T01:04:50.316Z,0
2017-01-18T01:05:30.809Z,0
2017-01-18T01:06:11.295Z,0
2017-01-18T01:06:51.807Z,0
2017-01-18T01:07:32.326Z,0
2017-01-18T01:08:12.814Z,0
2017-01-18T01:08:53.297Z,0
2017-01-18T01:09:33.780Z,0
2017-01-18T01:10:14.274Z,0
2017-01-18T01:10:54.767Z,0
2017-01-18T01:11:35.285Z,0
2017-01-18T01:12:15.784Z,0
2017-01-18T01:12:56.276Z,0
2017-01-18T01:13:36.786Z,0
2017-01-18T01:14:17.299Z,0
2017-01-18T01:14:57.797Z,0
2017-01-18T01:15:38.300Z,0
2017-01-18T01:16:18.797Z,0
2017-01-18T01:16:59.294Z,0
2017-01-18T01:17:39.801Z,0
2017-01-18T01:18:20.297Z,0
2017-01-18T01:19:00.798Z,0
2017-01-18T01:19:41.295Z,0
2017-01-18T01:20:21.798Z,0
2017-01-18T01:21:02.283Z,0
2017-01-18T01:21:42.802Z,0
2017-01-18T01:22:23.286Z,0
2017-01-18T01:23:03.789Z,0
2017-01-18T01:23:44.282Z,0
2017-01-18T01:24:24.771Z,0
2017-01-18T01:25:05.282Z,0
2017-01-18T01:25:45.772Z,0
2017-01-18T01:26:26.285Z,0
2017-01-18T01:27:06.784Z,0
2017-01-18T01:27:47.284Z,0
2017-01-18T01:28:27.790Z,0
2017-01-18T01:29:08.272Z,0
2017-01-18T01:29:48.760Z,0
2017-01-18T01:30:29.259Z,0
2017-01-18T01:31:09.753Z,0
2017-01-18T01:31:50.239Z,0
2017-01-18T01:32:30.730Z,0
2017-01-18T01:33:11.228Z,0
2017-01-18T01:33:51.727Z,0
2017-01-18T01:34:32.229Z,0
2017-01-18T01:35:12.715Z,0
2017-01-18T01:35:53.213Z,0
2017-01-18T01:36:33.726Z,0
2017-01-18T01:37:14.230Z,0
2017-01-18T01:37:54.728Z,0
2017-01-18T01:38:35.313Z,0
2017-01-18T01:39:15.777Z,0
2017-01-18T01:39:56.266Z,0
2017-01-18T01:40:36.760Z,0
2017-01-18T01:41:17.262Z,0
2017-01-18T01:41:57.752Z,0
2017-01-18T01:42:38.237Z,0
2017-01-18T01:43:18.740Z,0
2017-01-18T01:43:59.232Z,0
2017-01-18T01:44:39.724Z,0
2017-01-18T01:45:20.217Z,0
2017-01-18T01:46:00.709Z,0
2017-01-18T01:46:41.195Z,0
2017-01-18T01:47:21.675Z,0
2017-01-18T01:48:02.179Z,0
2017-01-18T01:48:42.663Z,0
2017-01-18T01:49:23.160Z,0
2017-01-18T01:50:03.660Z,0
2017-01-18T01:50:44.161Z,0
2017-01-18T01:51:24.662Z,0
2017-01-18T01:52:05.151Z,0
2017-01-18T01:52:45.640Z,0
2017-01-18T01:53:26.121Z,0
2017-01-18T01:54:06.630Z,0
2017-01-18T01:54:47.129Z,0
2017-01-18T01:55:27.629Z,0
2017-01-18T01:58:00.720Z,0
2017-01-18T01:58:41.205Z,0
2017-01-18T01:59:21.715Z,0
2017-01-18T02:00:02.203Z,0
2017-01-18T02:00:42.696Z,0
2017-01-18T02:01:23.553Z,0
2017-01-18T02:02:04.051Z,0
2017-01-18T02:02:44.546Z,0
2017-01-18T02:03:25.054Z,0
2017-01-18T02:04:05.539Z,0
2017-01-18T02:04:46.016Z,0
2017-01-18T02:05:26.504Z,0
2017-01-18T02:06:06.991Z,0
2017-01-18T02:06:47.491Z,0
2017-01-18T02:07:27.986Z,0
2017-01-18T02:08:08.471Z,0
2017-01-18T02:08:48.953Z,0
2017-01-18T02:09:29.434Z,0
2017-01-18T02:10:09.941Z,0
2017-01-18T02:10:50.431Z,0
2017-01-18T02:11:30.916Z,0
2017-01-18T02:12:11.396Z,0
2017-01-18T02:12:51.876Z,0
2017-01-18T02:13:32.361Z,0
2017-01-18T02:14:12.854Z,0
2017-01-18T02:14:53.348Z,0
2017-01-18T02:15:33.835Z,0
2017-01-18T02:16:14.325Z,0
2017-01-18T02:16:54.810Z,0
2017-01-18T02:17:35.289Z,0
2017-01-18T02:18:15.780Z,0
2017-01-18T02:18:56.283Z,0
2017-01-18T02:19:36.771Z,0
2017-01-18T02:20:17.271Z,0
2017-01-18T02:20:57.767Z,0
2017-01-18T02:21:38.252Z,0
2017-01-18T02:22:18.743Z,0
2017-01-18T02:22:59.241Z,0
2017-01-18T02:23:39.727Z,0
2017-01-18T02:24:20.242Z,0
2017-01-18T02:25:00.731Z,0
2017-01-18T02:25:41.237Z,0
2017-01-18T02:26:21.724Z,0
2017-01-18T02:27:02.209Z,0
2017-01-18T02:27:42.694Z,0
2017-01-18T02:28:23.177Z,0
2017-01-18T02:29:03.670Z,0
2017-01-18T02:29:44.171Z,0
2017-01-18T02:30:24.659Z,0
2017-01-18T02:31:05.163Z,0
2017-01-18T02:31:45.658Z,0
2017-01-18T02:32:26.164Z,0
2017-01-18T02:33:06.664Z,0
2017-01-18T02:33:47.158Z,0
2017-01-18T02:34:27.653Z,0
2017-01-18T02:35:08.139Z,0
2017-01-18T02:35:48.625Z,0
2017-01-18T02:36:29.122Z,0
2017-01-18T02:37:09.609Z,0
2017-01-18T02:37:50.096Z,0
2017-01-18T02:38:30.584Z,0
2017-01-18T02:39:11.064Z,0
2017-01-18T02:39:51.546Z,0
2017-01-18T02:40:32.035Z,0
2017-01-18T02:41:12.543Z,0
2017-01-18T02:41:53.035Z,0
2017-01-18T02:42:33.543Z,0
2017-01-18T02:43:14.044Z,0
2017-01-18T02:43:54.526Z,0
2017-01-18T02:44:35.060Z,0
2017-01-18T02:45:15.549Z,0
2017-01-18T02:45:56.047Z,0
2017-01-18T02:46:36.538Z,0
2017-01-18T02:47:17.025Z,0
2017-01-18T02:47:57.505Z,0
2017-01-18T02:48:38.000Z,0
2017-01-18T02:49:18.499Z,0
2017-01-18T02:49:58.982Z,0
2017-01-18T02:50:39.470Z,0
2017-01-18T02:51:19.959Z,0
2017-01-18T02:52:00.459Z,0
2017-01-18T02:52:40.948Z,0
2017-01-18T02:53:21.428Z,0
2017-01-18T02:54:01.914Z,0
2017-01-18T02:54:42.399Z,0
2017-01-18T02:55:22.908Z,0
2017-01-18T02:56:03.393Z,0
2017-01-18T02:56:43.876Z,0
2017-01-18T02:57:24.360Z,0
2017-01-18T02:58:04.839Z,0
2017-01-18T02:58:45.325Z,0
2017-01-18T02:59:25.807Z,0
2017-01-18T03:00:06.290Z,0
2017-01-18T03:00:46.783Z,0
2017-01-18T03:01:27.279Z,0
2017-01-18T03:02:07.773Z,0
2017-01-18T03:02:48.274Z,0
2017-01-18T03:03:28.767Z,0
2017-01-18T03:04:09.250Z,0
2017-01-18T03:04:49.730Z,0
2017-01-18T03:05:30.225Z,0
2017-01-18T03:06:10.720Z,0
2017-01-18T03:06:51.208Z,0
2017-01-18T03:07:31.705Z,0
2017-01-18T03:08:12.205Z,0
2017-01-18T03:08:52.688Z,0
2017-01-18T03:09:33.172Z,0
2017-01-18T03:10:13.697Z,0
2017-01-18T03:10:54.194Z,0
2017-01-18T03:11:34.678Z,0
2017-01-18T03:12:15.170Z,0
2017-01-18T03:12:55.664Z,0
2017-01-18T03:13:36.166Z,0
2017-01-18T03:14:16.658Z,0
2017-01-18T03:14:57.165Z,0
2017-01-18T03:15:37.666Z,0
2017-01-18T03:16:18.157Z,0
2017-01-18T03:16:58.650Z,0
2017-01-18T03:17:39.163Z,0
2017-01-18T03:18:19.650Z,0
2017-01-18T03:19:00.158Z,0
2017-01-18T03:19:40.656Z,0
2017-01-18T03:20:21.166Z,0
2017-01-18T03:21:01.644Z,0
2017-01-18T03:21:42.137Z,0
2017-01-18T03:22:22.622Z,0
2017-01-18T03:23:03.131Z,0
2017-01-18T03:23:43.629Z,0
2017-01-18T03:24:24.120Z,0
2017-01-18T03:25:04.674Z,0
2017-01-18T03:25:45.158Z,0
2017-01-18T03:26:25.654Z,0
2017-01-18T03:27:06.149Z,0
2017-01-18T03:27:46.644Z,0
2017-01-18T03:28:27.154Z,0
2017-01-18T03:29:07.647Z,0
2017-01-18T03:29:48.149Z,0
2017-01-18T03:30:28.642Z,0
2017-01-18T03:31:09.148Z,0
2017-01-18T03:31:49.639Z,0
2017-01-18T03:32:30.145Z,0
2017-01-18T03:33:10.635Z,0
2017-01-18T03:33:51.142Z,0
2017-01-18T03:34:31.635Z,0
2017-01-18T03:35:12.234Z,0
2017-01-18T03:35:52.697Z,0
2017-01-18T03:36:33.185Z,0
2017-01-18T03:37:13.664Z,0
2017-01-18T03:37:54.148Z,0
2017-01-18T03:38:34.641Z,0
2017-01-18T03:39:15.136Z,0
2017-01-18T03:39:55.624Z,0
2017-01-18T03:40:36.141Z,0
2017-01-18T03:41:16.631Z,0
2017-01-18T03:41:57.140Z,0
2017-01-18T03:42:37.622Z,0
2017-01-18T03:43:18.108Z,0
2017-01-18T03:43:58.587Z,0
2017-01-18T03:44:39.084Z,0
2017-01-18T03:45:19.578Z,0
2017-01-18T03:46:00.068Z,0
2017-01-18T03:46:40.580Z,0
2017-01-18T03:47:21.070Z,0
2017-01-18T03:48:01.558Z,0
2017-01-18T03:48:42.035Z,0
2017-01-18T03:49:22.530Z,0
2017-01-18T03:50:03.022Z,0
2017-01-18T03:50:43.514Z,0
2017-01-18T03:51:24.001Z,0
2017-01-18T03:52:04.481Z,0
2017-01-18T03:52:44.976Z,0
2017-01-18T03:53:25.469Z,0
2017-01-18T03:54:05.960Z,0
2017-01-18T03:54:46.468Z,0
2017-01-18T03:55:26.956Z,0
2017-01-18T03:56:07.446Z,0
2017-01-18T03:56:47.931Z,0
2017-01-18T03:57:28.423Z,0
2017-01-18T03:58:08.919Z,0
2017-01-18T03:58:49.406Z,0
2017-01-18T03:59:29.887Z,0
2017-01-18T04:00:10.406Z,0
2017-01-18T04:00:50.894Z,0
2017-01-18T04:01:31.387Z,0
2017-01-18T04:02:11.875Z,0
2017-01-18T04:02:52.364Z,0
2017-01-18T04:03:32.861Z,0
2017-01-18T04:04:13.354Z,0
2017-01-18T04:04:53.860Z,0
2017-01-18T04:05:34.333Z,0
2017-01-18T04:06:14.814Z,0
2017-01-18T04:06:55.305Z,0
2017-01-18T04:07:35.801Z,0
2017-01-18T04:08:16.295Z,0
2017-01-18T04:08:56.784Z,0
2017-01-18T04:09:37.291Z,0
2017-01-18T04:10:17.785Z,0
2017-01-18T04:10:58.290Z,0
2017-01-18T04:11:38.777Z,0
2017-01-18T04:12:19.255Z,0
2017-01-18T04:12:59.762Z,0
2017-01-18T04:13:40.249Z,0
2017-01-18T04:14:20.741Z,0
2017-01-18T04:15:01.248Z,0
2017-01-18T04:15:41.734Z,0
2017-01-18T04:16:22.227Z,0
2017-01-18T04:17:02.730Z,0
2017-01-18T04:17:43.224Z,0
2017-01-18T04:18:23.732Z,0
2017-01-18T04:19:04.221Z,0
2017-01-18T04:19:44.730Z,0
2017-01-18T04:20:25.224Z,0
2017-01-18T04:21:05.797Z,0
2017-01-18T04:21:46.291Z,0
2017-01-18T04:22:26.792Z,0
2017-01-18T04:23:07.277Z,0
2017-01-18T04:23:47.761Z,0
2017-01-18T04:24:28.244Z,0
2017-01-18T04:25:08.734Z,0
2017-01-18T04:25:49.232Z,0
2017-01-18T04:26:29.723Z,0
2017-01-18T04:27:10.213Z,0
2017-01-18T04:27:50.704Z,0
2017-01-18T04:28:31.194Z,0
2017-01-18T04:29:11.680Z,0
2017-01-18T04:29:52.165Z,0
2017-01-18T04:30:32.674Z,0
2017-01-18T04:31:13.170Z,0
2017-01-18T04:31:53.677Z,0
2017-01-18T04:32:34.161Z,0
2017-01-18T04:33:14.648Z,0
2017-01-18T04:33:55.132Z,0
2017-01-18T04:34:35.626Z,0
2017-01-18T04:35:16.122Z,0
2017-01-18T04:35:56.607Z,0
2017-01-18T04:36:37.097Z,0
2017-01-18T04:37:17.572Z,0
2017-01-18T04:37:58.057Z,0
2017-01-18T04:38:38.545Z,0
2017-01-18T04:39:19.034Z,0
2017-01-18T04:39:59.534Z,0
2017-01-18T04:40:40.022Z,0
2017-01-18T04:41:20.515Z,0
2017-01-18T04:42:01.009Z,0
2017-01-18T04:42:41.504Z,0
2017-01-18T04:43:21.990Z,0
2017-01-18T04:44:02.486Z,0
2017-01-18T04:44:42.976Z,0
2017-01-18T04:45:23.467Z,0
2017-01-18T04:46:03.961Z,0
2017-01-18T04:46:44.458Z,0
2017-01-18T04:47:24.947Z,0
2017-01-18T04:48:05.431Z,0
2017-01-18T04:48:45.916Z,0
2017-01-18T04:49:26.430Z,0
2017-01-18T04:50:06.926Z,0
2017-01-18T04:50:47.423Z,0
2017-01-18T04:51:27.909Z,0
2017-01-18T04:52:08.401Z,0
2017-01-18T04:52:48.900Z,0
2017-01-18T04:53:29.389Z,0
2017-01-18T04:54:09.883Z,0
2017-01-18T04:54:50.372Z,0
2017-01-18T04:55:30.860Z,0
2017-01-18T04:56:11.347Z,0
2017-01-18T04:56:51.836Z,0
2017-01-18T04:57:32.321Z,0
2017-01-18T04:58:12.812Z,0
2017-01-18T04:58:53.314Z,0
2017-01-18T04:59:33.804Z,0
2017-01-18T05:00:14.293Z,0
2017-01-18T05:00:54.785Z,0
2017-01-18T05:01:35.268Z,0
2017-01-18T05:02:15.790Z,0
2017-01-18T05:02:56.277Z,0
2017-01-18T05:03:36.766Z,0
2017-01-18T05:04:17.255Z,0
2017-01-18T05:04:57.751Z,0
2017-01-18T05:05:38.240Z,0
2017-01-18T05:06:18.737Z,0
2017-01-18T05:06:59.230Z,0
2017-01-18T05:07:39.729Z,0
2017-01-18T05:08:20.229Z,0
2017-01-18T05:09:00.721Z,0
2017-01-18T05:09:41.204Z,0
2017-01-18T05:10:21.685Z,0
2017-01-18T05:11:02.172Z,0
2017-01-18T05:11:42.672Z,0
2017-01-18T05:12:23.166Z,0
2017-01-18T05:13:03.659Z,0
2017-01-18T05:13:44.173Z,0
2017-01-18T05:14:24.668Z,0
2017-01-18T05:15:05.166Z,0
2017-01-18T05:15:45.669Z,0
2017-01-18T05:16:26.171Z,0
2017-01-18T05:17:06.673Z,0
2017-01-18T05:17:47.159Z,0
2017-01-18T05:18:27.646Z,0
2017-01-18T05:19:08.128Z,0
2017-01-18T05:19:48.621Z,0
2017-01-18T05:20:29.115Z,0
2017-01-18T05:21:09.605Z,0
2017-01-18T05:21:50.092Z,0
2017-01-18T05:22:30.574Z,0
2017-01-18T05:23:11.067Z,0
2017-01-18T05:23:51.561Z,0
2017-01-18T05:24:32.048Z,0
2017-01-18T05:25:12.537Z,0
2017-01-18T05:25:53.028Z,0
2017-01-18T05:26:33.527Z,0
2017-01-18T05:27:14.013Z,0
2017-01-18T05:27:54.508Z,0
2017-01-18T05:28:35.007Z,0
2017-01-18T05:29:15.495Z,0
2017-01-18T05:29:55.982Z,0
2017-01-18T05:30:36.496Z,0
2017-01-18T05:31:17.005Z,0
2017-01-18T05:31:57.501Z,0
2017-01-18T05:32:38.004Z,0
2017-01-18T05:33:18.504Z,0
2017-01-18T05:33:58.997Z,0
2017-01-18T05:34:39.492Z,0
2017-01-18T05:35:19.997Z,0
2017-01-18T05:36:00.476Z,0
2017-01-18T05:36:40.962Z,0
2017-01-18T05:37:21.449Z,0
2017-01-18T05:38:01.942Z,0
2017-01-18T05:38:42.448Z,0
2017-01-18T05:39:22.934Z,0
2017-01-18T05:40:03.442Z,0
2017-01-18T05:40:43.945Z,0
2017-01-18T05:41:24.447Z,0
2017-01-18T05:42:04.933Z,0
2017-01-18T05:42:45.420Z,0
2017-01-18T05:43:25.902Z,0
2017-01-18T05:44:06.404Z,0
2017-01-18T05:46:39.498Z,0
2017-01-18T05:47:19.985Z,0
2017-01-18T05:48:00.478Z,0
2017-01-18T05:48:40.980Z,0
2017-01-18T05:49:21.473Z,0
2017-01-18T05:50:01.978Z,0
2017-01-18T05:50:42.464Z,0
2017-01-18T05:51:22.949Z,0
2017-01-18T05:52:03.432Z,0
2017-01-18T05:52:43.974Z,0
2017-01-18T05:53:24.463Z,0
2017-01-18T05:54:04.949Z,0
2017-01-18T05:54:45.426Z,0
2017-01-18T05:55:25.922Z,0
2017-01-18T05:56:06.417Z,0
2017-01-18T05:56:46.920Z,0
2017-01-18T05:57:27.413Z,0
2017-01-18T05:58:07.917Z,0
2017-01-18T05:58:48.418Z,0
2017-01-18T05:59:28.917Z,0
2017-01-18T06:00:09.421Z,0
2017-01-18T06:00:49.904Z,0
2017-01-18T06:01:30.388Z,0
2017-01-18T06:02:10.876Z,0
2017-01-18T06:02:51.467Z,0
2017-01-18T06:03:31.965Z,0
2017-01-18T06:04:12.462Z,0
2017-01-18T06:04:52.966Z,0
2017-01-18T06:05:33.451Z,0
2017-01-18T06:06:13.962Z,0
2017-01-18T06:06:54.457Z,0
2017-01-18T06:07:34.965Z,0
2017-01-18T06:08:15.462Z,0
2017-01-18T06:08:55.963Z,0
2017-01-18T06:09:36.447Z,0
2017-01-18T06:10:16.937Z,0
2017-01-18T06:10:57.417Z,0
2017-01-18T06:11:37.907Z,0
2017-01-18T06:12:18.403Z,0
2017-01-18T06:12:58.891Z,0
2017-01-18T06:13:39.383Z,0
2017-01-18T06:14:19.854Z,0
2017-01-18T06:15:00.329Z,0
2017-01-18T06:15:40.848Z,0
2017-01-18T06:16:21.350Z,0
2017-01-18T06:17:01.856Z,0
2017-01-18T06:17:42.335Z,0
2017-01-18T06:18:22.825Z,0
2017-01-18T06:19:03.317Z,0
2017-01-18T06:19:43.808Z,0
2017-01-18T06:20:24.293Z,0
2017-01-18T06:21:04.784Z,0
2017-01-18T06:21:45.270Z,0
2017-01-18T06:22:25.749Z,0
2017-01-18T06:23:06.240Z,0
2017-01-18T06:23:46.738Z,0
2017-01-18T06:24:27.229Z,0
2017-01-18T06:25:07.739Z,0
2017-01-18T06:25:48.231Z,0
2017-01-18T06:26:28.715Z,0
2017-01-18T06:27:09.196Z,0
2017-01-18T06:27:49.689Z,0
2017-01-18T06:28:30.187Z,0
2017-01-18T06:29:10.672Z,0
2017-01-18T06:29:51.159Z,0
2017-01-18T06:30:31.640Z,0
2017-01-18T06:31:12.127Z,0
2017-01-18T06:31:52.631Z,0
2017-01-18T06:32:33.119Z,0
2017-01-18T06:33:13.603Z,0
2017-01-18T06:33:54.085Z,0
2017-01-18T06:34:34.575Z,0
2017-01-18T06:35:15.056Z,0
2017-01-18T06:35:55.543Z,0
2017-01-18T06:36:36.042Z,0
2017-01-18T06:39:09.140Z,0
2017-01-18T06:39:49.615Z,0
2017-01-18T06:40:30.104Z,0
2017-01-18T06:41:10.608Z,0
2017-01-18T06:41:51.089Z,0
2017-01-18T06:42:31.575Z,0
2017-01-18T06:43:12.100Z,0
2017-01-18T06:43:52.581Z,0
2017-01-18T06:44:33.069Z,0
2017-01-18T06:45:13.563Z,0
2017-01-18T06:45:54.058Z,0
2017-01-18T06:46:34.546Z,0
2017-01-18T06:47:15.032Z,0
2017-01-18T06:47:55.512Z,0
2017-01-18T06:48:36.006Z,0
2017-01-18T06:49:16.507Z,0
2017-01-18T06:49:56.981Z,0
2017-01-18T06:50:37.481Z,0
2017-01-18T06:51:17.997Z,0
2017-01-18T06:51:58.499Z,0
2017-01-18T06:52:38.981Z,0
2017-01-18T06:53:19.465Z,0
2017-01-18T06:53:59.954Z,0
2017-01-18T06:54:40.445Z,0
2017-01-18T06:55:20.951Z,4
2017-01-18T06:56:01.444Z,4
2017-01-18T06:56:41.921Z,4
2017-01-18T06:57:22.397Z,4
2017-01-18T06:58:02.892Z,4
2017-01-18T06:58:43.396Z,4
2017-01-18T06:59:23.879Z,4
2017-01-18T07:00:04.389Z,0
2017-01-18T07:00:44.865Z,4
2017-01-18T07:01:25.366Z,4
2017-01-18T07:02:06.827Z,4
2017-01-18T07:02:47.319Z,4
2017-01-18T07:03:27.808Z,8
2017-01-18T07:04:08.307Z,8
2017-01-18T07:04:48.790Z,4
2017-01-18T07:05:29.283Z,8
2017-01-18T07:06:09.762Z,8
2017-01-18T07:06:50.273Z,12
2017-01-18T07:07:30.762Z,8
2017-01-18T07:08:11.251Z,12
2017-01-18T07:08:51.748Z,12
2017-01-18T07:09:32.231Z,12
2017-01-18T07:10:12.714Z,12
2017-01-18T07:10:53.198Z,16
2017-01-18T07:11:33.692Z,12
2017-01-18T07:12:14.174Z,16
2017-01-18T07:12:54.679Z,16
2017-01-18T07:13:35.192Z,16
2017-01-18T07:14:15.687Z,20
2017-01-18T07:14:57.018Z,24
2017-01-18T07:15:37.535Z,24
2017-01-18T07:16:18.026Z,28
2017-01-18T07:16:58.514Z,24
2017-01-18T07:17:39.009Z,32
2017-01-18T07:18:19.504Z,32
2017-01-18T07:18:59.991Z,32
2017-01-18T07:19:40.499Z,32
2017-01-18T07:20:20.991Z,36
2017-01-18T07:21:01.505Z,40
2017-01-18T07:21:42.010Z,40
2017-01-18T07:22:22.510Z,44
2017-01-18T07:23:03.008Z,48
2017-01-18T07:23:43.527Z,48
2017-01-18T07:24:24.016Z,52
2017-01-18T07:25:04.641Z,52
2017-01-18T07:25:45.154Z,56
2017-01-18T07:26:25.659Z,56
2017-01-18T07:27:06.148Z,60
2017-01-18T07:27:46.629Z,64
2017-01-18T07:28:27.111Z,64
2017-01-18T07:29:07.810Z,68
2017-01-18T07:29:48.317Z,68
2017-01-18T07:30:29.316Z,72
2017-01-18T07:31:09.800Z,72
2017-01-18T07:31:50.297Z,76
2017-01-18T07:32:30.782Z,80
2017-01-18T07:33:11.271Z,84
2017-01-18T07:33:51.760Z,84
2017-01-18T07:34:32.268Z,88
2017-01-18T07:35:12.753Z,92
2017-01-18T07:35:53.245Z,92
2017-01-18T07:36:33.760Z,100
2017-01-18T07:37:14.263Z,100
2017-01-18T07:37:54.750Z,100
2017-01-18T07:38:35.258Z,108
2017-01-18T07:39:15.755Z,108
2017-01-18T07:39:56.260Z,112
2017-01-18T07:40:36.746Z,116
2017-01-18T07:41:17.239Z,116
2017-01-18T07:41:57.725Z,124
2017-01-18T07:42:38.227Z,128
2017-01-18T07:43:18.714Z,132
2017-01-18T07:43:59.221Z,132
2017-01-18T07:44:39.711Z,136
2017-01-18T07:45:20.187Z,144
2017-01-18T07:46:00.704Z,148
2017-01-18T07:46:41.198Z,156
2017-01-18T07:47:21.707Z,160
2017-01-18T07:48:02.189Z,164
2017-01-18T07:48:42.685Z,176
2017-01-18T07:49:23.190Z,180
2017-01-18T07:50:03.675Z,188
2017-01-18T07:50:44.156Z,192
2017-01-18T07:51:24.670Z,200
2017-01-18T07:52:05.164Z,208
2017-01-18T07:52:45.659Z,220
2017-01-18T07:53:26.151Z,232
2017-01-18T07:54:06.643Z,248
2017-01-18T07:54:47.145Z,264
2017-01-18T07:55:27.636Z,284
2017-01-18T07:56:08.143Z,304
2017-01-18T07:56:48.659Z,384
2017-01-18T07:57:29.216Z,436
2017-01-18T07:58:09.672Z,468
2017-01-18T07:58:50.149Z,492
2017-01-18T07:59:30.643Z,512
2017-01-18T08:00:11.138Z,528
2017-01-18T08:00:51.635Z,532
2017-01-18T08:01:32.140Z,528
2017-01-18T08:02:12.618Z,516
2017-01-18T08:02:53.136Z,504
2017-01-18T08:03:33.637Z,492
2017-01-18T08:04:14.131Z,488
2017-01-18T08:04:54.635Z,484
2017-01-18T08:05:35.136Z,468
2017-01-18T08:06:15.625Z,456
2017-01-18T08:06:56.112Z,440
2017-01-18T08:07:36.602Z,440
2017-01-18T08:08:17.097Z,448
2017-01-18T08:08:57.581Z,448
2017-01-18T08:09:38.093Z,444
2017-01-18T08:10:18.579Z,432
2017-01-18T08:10:59.069Z,416
2017-01-18T08:11:40.522Z,396
2017-01-18T08:12:20.055Z,380
2017-01-18T08:13:00.589Z,372
2017-01-18T08:13:41.076Z,368
2017-01-18T08:14:21.572Z,368
2017-01-18T08:15:02.068Z,376
2017-01-18T08:15:42.552Z,380
2017-01-18T08:16:23.061Z,392
2017-01-18T08:17:03.575Z,404
2017-01-18T08:17:44.060Z,416
2017-01-18T08:18:24.571Z,428
2017-01-18T08:19:05.062Z,444
2017-01-18T08:19:45.568Z,464
2017-01-18T08:20:26.059Z,484
2017-01-18T08:21:06.548Z,504
2017-01-18T08:21:47.041Z,520
2017-01-18T08:22:27.608Z,540
2017-01-18T08:23:08.129Z,556
2017-01-18T08:23:48.620Z,572
2017-01-18T08:24:29.112Z,580
2017-01-18T08:25:09.625Z,584
2017-01-18T08:25:50.188Z,592
2017-01-18T08:26:30.670Z,600
2017-01-18T08:27:11.163Z,612
2017-01-18T08:27:51.661Z,620
2017-01-18T08:28:32.148Z,624
2017-01-18T08:29:12.633Z,624
2017-01-18T08:29:53.119Z,632
2017-01-18T08:30:33.616Z,640
2017-01-18T08:31:14.112Z,652
2017-01-18T08:31:54.612Z,664
2017-01-18T08:32:35.109Z,676
2017-01-18T08:33:15.607Z,696
2017-01-18T08:33:56.112Z,708
2017-01-18T08:34:36.593Z,728
2017-01-18T08:35:17.082Z,748
2017-01-18T08:35:57.590Z,776
2017-01-18T08:36:38.085Z,796
2017-01-18T08:37:18.605Z,816
2017-01-18T08:37:59.107Z,840
2017-01-18T08:38:39.592Z,852
2017-01-18T08:39:20.081Z,856
2017-01-18T08:40:00.573Z,860
2017-01-18T08:40:41.068Z,868
2017-01-18T08:41:21.553Z,880
2017-01-18T08:42:02.053Z,880
2017-01-18T08:42:42.718Z,884
2017-01-18T08:43:23.205Z,884
2017-01-18T08:44:03.690Z,892
2017-01-18T08:44:44.165Z,900
2017-01-18T08:45:24.656Z,908
2017-01-18T08:46:05.153Z,912
2017-01-18T08:46:45.649Z,908
2017-01-18T08:47:26.136Z,904
2017-01-18T08:48:06.648Z,904
2017-01-18T08:48:47.138Z,912
2017-01-18T08:49:27.625Z,916
2017-01-18T08:50:08.145Z,912
2017-01-18T08:50:48.641Z,896
2017-01-18T08:51:29.134Z,888
2017-01-18T08:52:09.627Z,884
2017-01-18T08:52:50.115Z,884
2017-01-18T08:53:30.610Z,892
2017-01-18T08:54:11.097Z,900
2017-01-18T08:54:51.577Z,908
2017-01-18T08:55:32.062Z,916
2017-01-18T08:56:12.547Z,924
2017-01-18T08:56:53.039Z,928
2017-01-18T08:57:33.535Z,948
2017-01-18T08:58:14.011Z,980
2017-01-18T08:58:54.638Z,1024
2017-01-18T08:59:35.122Z,1072
2017-01-18T09:00:15.648Z,1120
2017-01-18T09:00:56.150Z,1148
2017-01-18T09:01:36.636Z,1148
2017-01-18T09:02:17.120Z,1128
2017-01-18T09:02:57.611Z,1092
2017-01-18T09:03:38.097Z,1072
2017-01-18T09:04:18.585Z,1056
2017-01-18T09:04:59.076Z,1056
2017-01-18T09:05:39.567Z,1056
2017-01-18T09:06:20.093Z,1060
2017-01-18T09:07:00.600Z,1060
2017-01-18T09:07:41.096Z,1064
2017-01-18T09:08:21.576Z,1068
2017-01-18T09:09:02.075Z,1056
2017-01-18T09:09:42.561Z,1036
2017-01-18T09:10:23.042Z,1016
2017-01-18T09:11:03.528Z,1016
2017-01-18T09:11:44.027Z,1012
2017-01-18T09:12:24.518Z,1012
2017-01-18T09:13:05.008Z,1016
2017-01-18T09:13:45.519Z,1008
2017-01-18T09:14:26.008Z,1000
2017-01-18T09:15:06.517Z,992
2017-01-18T09:15:46.997Z,988
2017-01-18T09:16:27.482Z,984
2017-01-18T09:17:07.970Z,980
2017-01-18T09:17:48.466Z,972
2017-01-18T09:18:28.965Z,968
2017-01-18T09:19:09.477Z,964
2017-01-18T09:19:50.080Z,968
2017-01-18T09:20:30.623Z,972
2017-01-18T09:21:11.180Z,976
2017-01-18T09:21:51.665Z,984
2017-01-18T09:22:32.169Z,984
2017-01-18T09:23:12.659Z,988
2017-01-18T09:23:53.139Z,984
2017-01-18T09:24:33.630Z,988
2017-01-18T09:25:14.137Z,988
2017-01-18T09:25:54.619Z,992
2017-01-18T09:26:35.113Z,996
2017-01-18T09:27:15.612Z,1004
2017-01-18T09:27:56.107Z,1020
2017-01-18T09:28:36.608Z,1028
2017-01-18T09:29:17.195Z,1024
2017-01-18T09:29:57.693Z,1016
2017-01-18T09:30:38.187Z,996
2017-01-18T09:31:18.831Z,976
2017-01-18T09:31:59.326Z,952
2017-01-18T09:32:39.852Z,936
2017-01-18T09:33:20.364Z,924
2017-01-18T09:34:00.855Z,916
2017-01-18T09:34:41.359Z,912
2017-01-18T09:35:21.862Z,908
2017-01-18T09:36:02.502Z,904
2017-01-18T09:36:42.986Z,904
2017-01-18T09:37:23.479Z,900
2017-01-18T09:38:03.974Z,904
2017-01-18T09:38:44.459Z,900
2017-01-18T09:39:25.038Z,904
2017-01-18T09:40:05.529Z,896
2017-01-18T09:40:46.057Z,888
2017-01-18T09:41:26.569Z,884
2017-01-18T09:42:07.064Z,896
2017-01-18T09:42:47.564Z,916
2017-01-18T09:43:28.060Z,948
2017-01-18T09:44:08.557Z,988
2017-01-18T09:44:49.049Z,1024
2017-01-18T09:45:29.523Z,1044
2017-01-18T09:46:10.006Z,1060
2017-01-18T09:46:50.495Z,1076
2017-01-18T09:47:30.975Z,1092
2017-01-18T09:48:11.457Z,1112
2017-01-18T09:48:51.968Z,1124
2017-01-18T09:49:32.453Z,1136
2017-01-18T09:50:12.949Z,1140
2017-01-18T09:50:53.439Z,1148
2017-01-18T09:51:33.933Z,1156
2017-01-18T09:52:14.445Z,1168